• Join FlightAware (Why Join?)
  • Login
  • US Flag 
11:24AM EDT


 

Airport Tracker/Info


-or-


 

Live Flight TrackerFlight Track Log ✈ N23A ✈ 08-May-2013 ✈ KSJT - KVNY

Flight Track Log - Related Links

Times and Time Zones

All times are in EDT time to prevent confusion due to time zone crossing. See the N23A flight status page for this flight to view local times or setup timezone preferences in your user account.

Time Position Orientation Groundspeed Altitude Reporting Facility
EDT Latitude Longitude Course Direction KTS MPH feet Rate Location/Type
01:52PM 31.4167 -101.1480 270° West  Level FlightAware Approximate
01:53PM 31.4265 -101.2594 277° West  Level FlightAware Approximate
01:53PM 31.2492 -100.5550 270° West 248 285 10,300  Level Fort Worth Center
01:54PM 31.4382 -101.3707 277° West  Level FlightAware Approximate
01:54PM 31.2611 -100.6625 277° West 290 334 12,200  Level Fort Worth Center
01:55PM 31.4499 -101.4820 277° West  Level FlightAware Approximate
01:55PM 31.2769 -100.7722 280° West 327 376 15,500  Level Fort Worth Center
01:56PM 31.4637 -101.5930 278° West  Level FlightAware Approximate
01:56PM 31.2883 -100.8894 277° West 345 397 17,100  Level Fort Worth Center
01:57PM 31.4682 -101.7049 275° West  Level FlightAware Approximate
01:57PM 31.3058 -101.0139 279° West 374 430 18,200  Level Fort Worth Center
01:58PM 31.4762 -101.8167 275° West  Level FlightAware Approximate
01:58PM 31.3122 -101.0547 280° West 390 449 18,800  Level Albuquerque Center
01:59PM 31.3294 -101.1861 279° West 404 465 20,300 1,260 Climbing Albuquerque Center
02:00PM 31.3464 -101.3175 279° West 408 470 21,500 1,260 Climbing Albuquerque Center
02:01PM 31.3633 -101.4761 277° West 410 472 23,000 1,140 Climbing Albuquerque Center
02:02PM 31.3783 -101.6089 278° West 412 474 23,900 1,020 Climbing Albuquerque Center
02:02PM 31.3839 -101.6594 277° West 412 474 24,600 1,260 Climbing Fort Worth Center
02:04PM 31.4069 -101.8692 277° West 406 467 26,600 1,080 Climbing Albuquerque Center
02:05PM 31.4208 -102.0108 277° West 415 478 27,600 960 Climbing Albuquerque Center
02:06PM 31.4353 -102.1414 277° West 409 471 28,700 1,080 Climbing Albuquerque Center
02:07PM 31.4483 -102.2711 277° West 403 464 29,900 1,020 Climbing Albuquerque Center
02:08PM 31.4625 -102.3964 278° West 393 452 30,900 960 Climbing Albuquerque Center
02:09PM 31.4761 -102.5292 277° West 387 445 31,900 840 Climbing Albuquerque Center
02:10PM 31.4886 -102.6508 277° West 381 438 32,700 720 Climbing Albuquerque Center
02:11PM 31.5033 -102.7981 277° West 381 438 33,500 840 Climbing Albuquerque Center
02:12PM 31.5178 -102.9194 278° West 380 437 34,500 960 Climbing Albuquerque Center
02:13PM 31.5292 -103.0400 276° West 375 432 35,500 780 Climbing Albuquerque Center
02:14PM 31.5400 -103.1578 276° West 369 425 36,200 720 Climbing Albuquerque Center
02:15PM 31.5533 -103.2736 278° West 362 417 37,100 960 Climbing Albuquerque Center
02:16PM 31.5633 -103.3856 276° West 352 405 38,300 1,320 Climbing Albuquerque Center
02:17PM 31.5744 -103.5044 276° West 315 362 39,900 780 Climbing Albuquerque Center
02:18PM 31.5825 -103.5997 276° West 300 345 40,000 60 Climbing Albuquerque Center
02:19PM 31.5917 -103.6964 276° West 304 350 40,100  Climbing Albuquerque Center
02:20PM 31.6003 -103.8061 275° West 313 360 40,000  Descending Albuquerque Center
02:21PM 31.6114 -103.9103 277° West 320 368 40,100  Climbing Albuquerque Center
02:22PM 31.6242 -104.0119 278° West 317 365 40,100 -60 Level Albuquerque Center
02:23PM 31.6336 -104.1139 276° West 316 364 40,000 -60 Descending Albuquerque Center
02:24PM 31.6428 -104.2156 276° West 315 362 40,000  Level Albuquerque Center
02:25PM 31.6528 -104.3158 277° West 312 359 40,100  Climbing Albuquerque Center
02:26PM 31.6617 -104.4369 275° West 312 359 40,000 -60 Descending Albuquerque Center
02:27PM 31.6717 -104.5389 277° West 315 362 40,000  Level Albuquerque Center
02:28PM 31.6822 -104.6406 277° West 314 361 40,100  Climbing Albuquerque Center
02:30PM 31.6967 -104.7583 278° West  Level FlightAware Approximate
02:31PM 31.6997 -104.8464 278° West 320 368 40,000  Level Albuquerque Center
02:32PM 31.7097 -104.9492 277° West 320 368 40,000  Level Albuquerque Center
02:33PM 31.7178 -105.0517 275° West 317 365 40,000  Level Albuquerque Center
02:34PM 31.7286 -105.1758 276° West 319 367 40,100  Climbing Albuquerque Center
02:35PM 31.7369 -105.2803 275° West 321 369 40,000  Descending Albuquerque Center
02:36PM 31.7458 -105.3831 276° West 320 368 40,100  Climbing Albuquerque Center
02:37PM 31.7533 -105.4839 275° West 313 360 40,000 -60 Descending Albuquerque Center
02:38PM 31.7619 -105.5856 276° West 314 361 40,000  Level Albuquerque Center
02:39PM 31.7689 -105.6869 275° West 313 360 40,000  Level Albuquerque Center
02:40PM 31.7800 -105.8106 276° West 318 366 40,100  Climbing Albuquerque Center
02:41PM 31.7883 -105.9125 276° West 316 364 40,100 -60 Level Albuquerque Center
02:42PM 31.7967 -106.0158 275° West 318 366 40,000 -60 Descending Albuquerque Center
02:43PM 31.8036 -106.1206 274° West 323 372 40,000  Level Albuquerque Center
02:44PM 31.8131 -106.2236 276° West 320 368 40,100  Climbing Albuquerque Center
02:45PM 31.8342 -106.3275 283° West 329 379 40,000  Descending Albuquerque Center
02:46PM 31.8764 -106.4239 297° West 334 384 40,100  Climbing Albuquerque Center
02:47PM 31.9072 -106.5386 288° West 327 376 40,000 -60 Descending Albuquerque Center
02:48PM 31.9428 -106.6397 293° West 333 383 40,000  Level Albuquerque Center
02:49PM 31.9769 -106.7425 291° West 335 386 40,000  Level Albuquerque Center
02:50PM 32.0133 -106.8439 293° West 337 388 40,000  Level Albuquerque Center
02:51PM 32.0544 -106.9689 291° West 340 391 40,000  Level Albuquerque Center
02:52PM 32.0858 -107.0722 290° West 336 387 40,000  Level Albuquerque Center
02:53PM 32.1214 -107.1753 292° West 337 388 40,000  Level Albuquerque Center
02:54PM 32.1569 -107.2803 292° West 340 391 40,000  Level Albuquerque Center
02:55PM 32.1944 -107.3958 291° West 341 392 40,000  Level Albuquerque Center
02:56PM 32.2264 -107.4994 290° West 339 390 40,000  Level Albuquerque Center
02:57PM 32.2606 -107.5914 294° West 336 387 40,000  Level Albuquerque Center
02:58PM 32.2931 -107.6953 290° West 336 387 40,000  Level Albuquerque Center
02:59PM 32.3356 -107.8217 292° West 341 392 40,100  Climbing Albuquerque Center
03:00PM 32.3694 -107.9264 291° West 340 391 40,000 -60 Descending Albuquerque Center
03:01PM 32.4050 -108.0297 292° West 338 389 40,000  Level Albuquerque Center
03:02PM 32.4367 -108.1344 290° West 337 388 40,000  Level Albuquerque Center
03:03PM 32.4736 -108.2414 292° West 342 394 40,000  Level Albuquerque Center
03:05PM 32.5058 -108.3469 290° West 343 395 40,000  Level Albuquerque Center
03:06PM 32.5406 -108.4525 291° West 345 397 40,100  Climbing Albuquerque Center
03:07PM 32.5797 -108.5797 290° West 345 397 40,000  Descending Albuquerque Center
03:08PM 32.6158 -108.6853 292° West 347 399 40,100  Climbing Albuquerque Center
03:09PM 32.6500 -108.7922 291° West 348 400 40,000 -60 Descending Albuquerque Center
03:10PM 32.6839 -108.9003 290° West 350 403 40,000  Level Albuquerque Center
03:11PM 32.7231 -109.0100 293° West 357 411 40,000  Level Albuquerque Center
03:12PM 32.7531 -109.1203 288° West 355 409 40,000  Level Albuquerque Center
03:13PM 32.7939 -109.2514 290° West 353 406 40,000  Level Albuquerque Center
03:14PM 32.8250 -109.3611 289° West 352 405 40,000  Level Albuquerque Center
03:15PM 32.8603 -109.4689 291° West 351 404 40,000  Level Albuquerque Center
03:16PM 32.8961 -109.5769 292° West 352 405 40,000  Level Albuquerque Center
03:17PM 32.9300 -109.6864 290° West 354 407 40,000  Level Albuquerque Center
03:18PM 32.9639 -109.7969 290° West 358 412 40,000  Level Albuquerque Center
03:19PM 33.0064 -109.9286 291° West 359 413 40,000  Level Albuquerque Center
03:20PM 33.0394 -110.0397 290° West 359 413 40,000  Level Albuquerque Center
03:21PM 33.0767 -110.1503 292° West 361 415 40,000  Level Albuquerque Center
03:22PM 33.1100 -110.2617 290° West 360 414 40,000  Level Albuquerque Center
03:23PM 33.1444 -110.3742 290° West 363 418 40,000  Level Albuquerque Center
03:24PM 33.1853 -110.5086 290° West 363 418 40,000  Level Albuquerque Center
03:25PM 33.2175 -110.6214 289° West 362 417 40,000  Level Albuquerque Center
03:26PM 33.2522 -110.7358 290° West 364 419 40,000  Level Albuquerque Center
03:27PM 33.2875 -110.8514 290° West 368 423 40,000  Level Albuquerque Center
03:28PM 33.3203 -110.9672 289° West 368 423 40,000  Level Albuquerque Center
03:29PM 33.3642 -111.1058 291° West 371 427 40,000  Level Albuquerque Center
03:30PM 33.3964 -111.2228 288° West 370 426 40,000  Level Albuquerque Center
03:31PM 33.4311 -111.3417 289° West 376 433 40,000  Level Albuquerque Center
03:32PM 33.4644 -111.4617 288° West 380 437 40,000  Level Albuquerque Center
03:33PM 33.4997 -111.5792 290° West 376 433 40,000  Level Albuquerque Center
03:34PM 33.5339 -111.6989 289° West 377 434 40,000  Level Albuquerque Center
03:36PM 33.5689 -111.8189 289° West 379 436 40,000  Level Albuquerque Center
03:37PM 33.6031 -111.9392 289° West 379 436 40,000  Level Albuquerque Center
03:38PM 33.6439 -112.0850 289° West 381 438 40,000  Level Albuquerque Center
03:39PM 33.6786 -112.2061 289° West 382 440 40,000  Level Albuquerque Center
03:40PM 33.7125 -112.3281 289° West 383 441 40,000  Level Albuquerque Center
03:41PM 33.7481 -112.4508 289° West 385 443 40,000  Level Albuquerque Center
03:42PM 33.7819 -112.5739 288° West 386 444 40,000  Level Albuquerque Center
03:43PM 33.8167 -112.6953 289° West 386 444 40,000  Level Albuquerque Center
03:44PM 33.8558 -112.8442 288° West 388 447 40,000  Level Albuquerque Center
03:45PM 33.8917 -112.9675 289° West 390 449 40,000  Level Albuquerque Center
03:46PM 33.9250 -113.0914 288° West 390 449 40,000  Level Albuquerque Center
03:47PM 33.9578 -113.2164 288° West 390 449 40,000  Level Albuquerque Center
03:48PM 33.9897 -113.3425 287° West 393 452 40,000  Level Albuquerque Center
03:49PM 34.0222 -113.4686 287° West 394 453 40,000  Level Albuquerque Center
03:50PM 34.0664 -113.6194 290° West 396 456 40,000  Level Albuquerque Center
03:51PM 34.1008 -113.7458 288° West 397 457 40,000  Level Albuquerque Center
03:52PM 34.1367 -113.8669 290° West 401 461 40,000  Level Albuquerque Center
03:53PM 34.1706 -113.9958 288° West 402 463 40,000  Level Albuquerque Center
03:54PM 34.2128 -114.1494 288° West 401 461 40,000  Level Albuquerque Center
03:55PM 34.2472 -114.2778 288° West 402 463 40,000  Level Albuquerque Center
03:56PM 34.2803 -114.4081 287° West 404 465 40,000  Level Albuquerque Center
03:57PM 34.2894 -114.4467 286° West 404 465 40,000  Level Los Angeles Center
03:58PM 34.3247 -114.5772 288° West 408 470 40,000  Level Los Angeles Center
03:59PM 34.3575 -114.7083 287° West 408 470 40,000  Level Los Angeles Center
04:00PM 34.3997 -114.8661 288° West 411 473 40,000  Level Los Angeles Center
04:01PM 34.4333 -114.9967 287° West 409 471 40,000  Level Los Angeles Center
04:02PM 34.4661 -115.1275 287° West 408 470 40,000 -600 Level Los Angeles Center
04:03PM 34.4981 -115.2614 286° West 415 478 38,800 -1,200 Descending Los Angeles Center
04:04PM 34.5325 -115.3983 287° West 424 488 37,600 -1,260 Descending Los Angeles Center
04:05PM 34.5753 -115.5597 288° West 421 484 36,300 -1,200 Descending Los Angeles Center
04:06PM 34.6036 -115.6789 286° West 424 488 35,200 -1,260 Descending Los Angeles Center
04:07PM 34.6414 -115.8144 289° West 425 489 33,800 -1,920 Descending Los Angeles Center
04:08PM 34.6808 -115.9758 287° West 418 481 31,300 -2,220 Descending Los Angeles Center
04:09PM 34.7136 -116.1128 286° West 421 484 29,200 -1,800 Descending Los Angeles Center
04:10PM 34.7442 -116.2533 285° West 427 491 27,600 -1,260 Descending Los Angeles Center
04:11PM 34.7797 -116.3958 287° West 439 505 26,600 -900 Descending Los Angeles Center
04:12PM 34.7911 -116.5436 275° West 446 513 25,800 -840 Descending Los Angeles Center
04:13PM 34.7714 -116.6961 261° West 454 522 24,900 -1,200 Descending Los Angeles Center
04:14PM 34.7558 -116.8814 264° West 460 529 23,400 -1,200 Descending Los Angeles Center
04:15PM 34.7433 -117.0358 264° West 459 528 22,500 -900 Descending Los Angeles Center
04:16PM 34.7269 -117.1889 263° West 456 525 21,600 -900 Descending Los Angeles Center
04:18PM 34.6950 -117.4911 263° West 446 513 19,700 -1,020 Descending Los Angeles Center
04:19PM 34.6781 -117.6381 262° West 439 505 18,600 -1,260 Descending Los Angeles Center
04:20PM 34.6603 -117.7831 262° West 434 499 17,200 -1,620 Descending Los Angeles Center
04:21PM 34.6431 -117.9553 263° West 430 495 15,300 -1,860 Descending Los Angeles Center
04:23PM 34.6137 -118.0846 259° West  Level FlightAware Approximate
04:25PM 34.5667 -118.3667 180° South 247 284 7,900  Level Southern California TRACON
04:26PM 34.5333 -118.4333 239° Southwest 205 236 7,400 -720 Descending Southern California TRACON
04:28PM 34.5000 -118.4833 231° Southwest 191 220 6,500 -780 Descending Southern California TRACON
04:29PM 34.4500 -118.5167 209° Southwest 198 228 5,800 -540 Descending Southern California TRACON
04:30PM 34.2763 -118.5066 168° South  Level FlightAware Approximate
04:30PM 34.3833 -118.5000 168° South 209 241 5,500  Level Southern California TRACON
04:30PM 34.3333 -118.5000 180° South 202 232 5,000 -1,080 Descending Southern California TRACON
04:31PM 34.2098 -118.4900 180° South  Level Estimated
04:32PM 34.2833 -118.5000 180° South 171 197 3,400  Level Southern California TRACON
04:33PM 34.2500 -118.5000 180° South 131 151 1,700 -1,740 Descending Southern California TRACON
04:35PM 34.2098 -118.4900 180° South  Level Estimated
04:42PM 34.2098 -118.4900 180° South  Level Estimated